Time;durP1;ratioP1;P1;durP2;ratioP2;P2;SDS_P1;SDS_P2;PMS_P1;PMS_P2;Temp;Humidity;BMP_temperature;BMP_pressure;BME280_temperature;BME280_humidity;BME280_pressure;Samples;Min_cycle;Max_cycle;Signal;HPM_P1;HPM_P2
2021/06/08 00:02:09;;;;;;;231.10;41.13;;;;;;;;;;5034452;28;20129;-61
2021/06/08 00:04:55;;;;;;;269.15;45.85;;;;;;;;;;5035595;28;20501;-62
2021/06/08 00:07:41;;;;;;;192.02;44.38;;;;;;;;;;5034744;28;20057;-61
2021/06/08 00:10:26;;;;;;;385.55;62.72;;;;;;;;;;5034519;28;20061;-62
2021/06/08 00:13:11;;;;;;;343.95;63.35;;;;;;;;;;5033183;28;20183;-62
2021/06/08 00:15:57;;;;;;;150.38;43.92;;;;;;;;;;5033813;28;20119;-62
2021/06/08 00:18:42;;;;;;;177.35;47.10;;;;;;;;;;5034699;28;20049;-62
2021/06/08 00:21:27;;;;;;;82.25;34.60;;;;;;;;;;5033611;28;20410;-62
2021/06/08 00:24:13;;;;;;;96.10;45.70;;;;;;;;;;5034472;28;20049;-62
2021/06/08 00:26:58;;;;;;;103.97;44.40;;;;;;;;;;5034421;28;20079;-62
2021/06/08 00:29:44;;;;;;;94.47;44.45;;;;;;;;;;5019202;28;20037;-61
2021/06/08 00:32:29;;;;;;;84.70;38.70;;;;;;;;;;5033202;28;20049;-62
2021/06/08 00:35:14;;;;;;;112.00;37.95;;;;;;;;;;5034386;28;20050;-62
2021/06/08 00:38:00;;;;;;;127.32;42.15;;;;;;;;;;5034516;28;20045;-62
2021/06/08 00:40:45;;;;;;;82.38;36.80;;;;;;;;;;5033176;28;20045;-62
2021/06/08 00:43:35;;;;;;;184.02;46.90;;;;;;;;;;5034359;28;20045;-62
2021/06/08 00:46:20;;;;;;;174.63;48.20;;;;;;;;;;5033142;28;20049;-62
2021/06/08 00:49:06;;;;;;;179.25;50.65;;;;;;;;;;5033920;28;20083;-62
2021/06/08 00:51:53;;;;;;;146.98;52.25;;;;;;;;;;5033621;28;20050;-62
2021/06/08 00:54:48;;;;;;;107.75;50.33;;;;;;;;;;5034087;28;20120;-61
2021/06/08 00:57:33;;;;;;;113.38;45.53;;;;;;;;;;5034225;28;20046;-62
2021/06/08 01:00:19;;;;;;;133.63;45.47;;;;;;;;;;5033714;28;20496;-62
2021/06/08 01:03:05;;;;;;;128.10;38.60;;;;;;;;;;5033099;28;20053;-61
2021/06/08 01:05:50;;;;;;;211.95;44.33;;;;;;;;;;5032673;28;20060;-62
2021/06/08 01:08:38;;;;;;;289.65;51.60;;;;;;;;;;5014064;28;20049;-62
2021/06/08 01:11:24;;;;;;;150.75;45.60;;;;;;;;;;5013454;28;20076;-62
2021/06/08 01:14:09;;;;;;;142.80;42.55;;;;;;;;;;5033374;28;20048;-62
2021/06/08 01:16:55;;;;;;;194.25;43.03;;;;;;;;;;5033378;28;20068;-62
2021/06/08 01:19:40;;;;;;;235.20;46.10;;;;;;;;;;5032163;28;20053;-62
2021/06/08 01:22:25;;;;;;;147.32;46.63;;;;;;;;;;5033427;28;20056;-62
2021/06/08 01:25:11;;;;;;;122.50;44.75;;;;;;;;;;5033183;28;20419;-62
2021/06/08 01:27:56;;;;;;;195.00;50.05;;;;;;;;;;5031740;28;20045;-62
2021/06/08 01:30:46;;;;;;;139.02;37.58;;;;;;;;;;5031206;28;20049;-62
2021/06/08 01:33:31;;;;;;;274.75;46.03;;;;;;;;;;5033193;28;20416;-62
2021/06/08 01:36:17;;;;;;;133.43;32.40;;;;;;;;;;5032838;28;20614;-62
2021/06/08 01:39:02;;;;;;;117.63;38.72;;;;;;;;;;5032000;28;20049;-62
2021/06/08 01:41:48;;;;;;;151.77;39.50;;;;;;;;;;5031712;28;20156;-62
2021/06/08 01:44:33;;;;;;;195.77;47.13;;;;;;;;;;5031767;28;20068;-62
2021/06/08 01:47:18;;;;;;;301.27;55.75;;;;;;;;;;5030820;28;20049;-62
2021/06/08 01:50:04;;;;;;;158.27;46.58;;;;;;;;;;5032732;28;20510;-62
2021/06/08 01:52:56;;;;;;;284.75;50.00;;;;;;;;;;5032726;28;20103;-62
2021/06/08 01:55:42;;;;;;;301.58;53.10;;;;;;;;;;5032589;28;20079;-62
2021/06/08 01:58:32;;;;;;;285.40;58.28;;;;;;;;;;5030989;28;20499;-62
2021/06/08 02:01:24;;;;;;;180.18;49.20;;;;;;;;;;5031457;28;20140;-62
2021/06/08 02:04:19;;;;;;;133.70;45.03;;;;;;;;;;5031345;28;20052;-62
2021/06/08 02:07:07;;;;;;;438.88;62.33;;;;;;;;;;5024780;28;20437;-62
2021/06/08 02:09:53;;;;;;;171.00;45.58;;;;;;;;;;5011444;28;20290;-62
2021/06/08 02:12:38;;;;;;;248.98;55.92;;;;;;;;;;5011760;28;20495;-62
2021/06/08 02:15:23;;;;;;;212.23;49.20;;;;;;;;;;5011673;28;20042;-62
2021/06/08 02:18:09;;;;;;;385.80;57.83;;;;;;;;;;5016553;28;20072;-62
2021/06/08 02:20:58;;;;;;;385.48;66.13;;;;;;;;;;5017529;28;20139;-62
2021/06/08 02:24:03;;;;;;;261.60;54.90;;;;;;;;;;5039356;28;20089;-62
2021/06/08 02:26:50;;;;;;;331.95;60.20;;;;;;;;;;5012312;28;20049;-62
2021/06/08 02:29:38;;;;;;;317.77;60.20;;;;;;;;;;4997941;28;20515;-62
2021/06/08 02:32:24;;;;;;;246.57;57.70;;;;;;;;;;4997664;28;20046;-62
2021/06/08 02:35:10;;;;;;;158.25;49.05;;;;;;;;;;4997785;28;20046;-62
2021/06/08 02:38:00;;;;;;;194.80;52.47;;;;;;;;;;5016309;28;20049;-62
2021/06/08 02:40:46;;;;;;;234.88;53.85;;;;;;;;;;5030375;28;20132;-62
2021/06/08 02:43:32;;;;;;;360.73;61.50;;;;;;;;;;5031758;28;20412;-62
2021/06/08 02:46:17;;;;;;;320.77;63.03;;;;;;;;;;5030163;28;20046;-62
2021/06/08 02:49:05;;;;;;;242.50;54.45;;;;;;;;;;5038470;28;20046;-62
2021/06/08 02:51:51;;;;;;;228.10;54.63;;;;;;;;;;5016422;28;20518;-62
2021/06/08 02:54:36;;;;;;;276.20;60.63;;;;;;;;;;5031795;28;20507;-62
2021/06/08 02:57:22;;;;;;;434.48;65.97;;;;;;;;;;5031264;28;20495;-62
2021/06/08 03:00:08;;;;;;;389.90;68.70;;;;;;;;;;5031760;28;20144;-62
2021/06/08 03:02:56;;;;;;;375.30;68.38;;;;;;;;;;5031920;28;20056;-62
2021/06/08 03:05:43;;;;;;;168.88;57.17;;;;;;;;;;5031926;28;20069;-62
2021/06/08 03:08:40;;;;;;;321.02;58.05;;;;;;;;;;5030809;28;20058;-61
2021/06/08 03:11:52;;;;;;;175.60;55.90;;;;;;;;;;4986608;28;20109;-62
2021/06/08 03:14:39;;;;;;;214.95;55.97;;;;;;;;;;4997410;28;20053;-61
2021/06/08 03:17:25;;;;;;;284.90;61.15;;;;;;;;;;4999082;28;20042;-62
2021/06/08 03:20:16;;;;;;;258.77;57.95;;;;;;;;;;5030679;28;20143;-62
2021/06/08 03:23:02;;;;;;;254.63;59.30;;;;;;;;;;5031883;28;20050;-62
2021/06/08 03:25:47;;;;;;;224.68;59.65;;;;;;;;;;5031893;28;20089;-61
2021/06/08 03:28:33;;;;;;;141.70;52.80;;;;;;;;;;5026332;28;20501;-62
2021/06/08 03:31:18;;;;;;;136.35;54.00;;;;;;;;;;5010823;28;20500;-62
2021/06/08 03:34:04;;;;;;;163.18;53.38;;;;;;;;;;5031655;28;20404;-62
2021/06/08 03:36:51;;;;;;;233.55;56.53;;;;;;;;;;5030630;28;20045;-61
2021/06/08 03:39:36;;;;;;;404.67;63.70;;;;;;;;;;5029681;28;20060;-62
2021/06/08 03:42:22;;;;;;;346.23;52.50;;;;;;;;;;5030895;28;20053;-62
2021/06/08 03:45:11;;;;;;;229.25;55.38;;;;;;;;;;5044643;28;20060;-62
2021/06/08 03:47:58;;;;;;;379.55;61.20;;;;;;;;;;5031560;28;20499;-62
2021/06/08 03:50:44;;;;;;;367.92;64.57;;;;;;;;;;5030309;28;20203;-62
2021/06/08 03:53:29;;;;;;;405.02;63.42;;;;;;;;;;5032737;28;20052;-62
2021/06/08 03:56:14;;;;;;;444.98;65.28;;;;;;;;;;5035421;28;20049;-62
2021/06/08 03:59:00;;;;;;;292.90;62.22;;;;;;;;;;5034610;28;20046;-62
2021/06/08 04:01:45;;;;;;;356.23;65.97;;;;;;;;;;5034414;28;20100;-62
2021/06/08 04:04:31;;;;;;;324.80;67.45;;;;;;;;;;5035156;28;20042;-62
2021/06/08 04:07:18;;;;;;;359.35;56.17;;;;;;;;;;5055840;23;20102;-66
2021/06/08 04:10:04;;;;;;;278.25;54.35;;;;;;;;;;5053308;28;20049;-66
2021/06/08 04:12:50;;;;;;;255.57;59.78;;;;;;;;;;5052057;28;20049;-66
2021/06/08 04:15:36;;;;;;;247.00;52.42;;;;;;;;;;5042097;28;20044;-65
2021/06/08 04:18:21;;;;;;;161.88;52.38;;;;;;;;;;5050949;28;20037;-66
2021/06/08 04:21:07;;;;;;;154.57;51.05;;;;;;;;;;5049714;28;20195;-66
2021/06/08 04:23:58;;;;;;;176.85;55.55;;;;;;;;;;5054210;28;20049;-66
2021/06/08 04:26:44;;;;;;;129.57;54.03;;;;;;;;;;5052387;28;20048;-66
2021/06/08 04:29:29;;;;;;;136.77;51.50;;;;;;;;;;5053884;28;20505;-65
2021/06/08 04:32:17;;;;;;;117.57;51.13;;;;;;;;;;5052980;28;20102;-66
2021/06/08 04:35:02;;;;;;;105.32;46.83;;;;;;;;;;5054224;28;20115;-66
2021/06/08 04:37:47;;;;;;;100.60;47.50;;;;;;;;;;5052818;28;20041;-66
2021/06/08 04:40:33;;;;;;;93.78;42.38;;;;;;;;;;5051716;28;20144;-66
2021/06/08 04:43:22;;;;;;;78.25;41.30;;;;;;;;;;5053198;28;20057;-66
2021/06/08 04:46:10;;;;;;;80.60;40.63;;;;;;;;;;5050210;28;20045;-65
2021/06/08 04:49:16;;;;;;;134.18;42.53;;;;;;;;;;5052788;28;20049;-66
2021/06/08 04:52:01;;;;;;;109.72;46.17;;;;;;;;;;5053813;28;20075;-66
2021/06/08 04:54:59;;;;;;;96.75;46.35;;;;;;;;;;5053617;28;20134;-65
2021/06/08 04:57:45;;;;;;;90.35;41.33;;;;;;;;;;5053740;28;20052;-66
2021/06/08 05:00:37;;;;;;;102.60;43.33;;;;;;;;;;5052402;28;20053;-65
2021/06/08 05:03:27;;;;;;;78.72;42.00;;;;;;;;;;5053405;28;20056;-66
2021/06/08 05:06:12;;;;;;;77.95;41.80;;;;;;;;;;5050751;28;20127;-66
2021/06/08 05:08:58;;;;;;;93.45;40.45;;;;;;;;;;5048810;28;20106;-66
2021/06/08 05:11:54;;;;;;;114.40;42.72;;;;;;;;;;5053329;28;20515;-66
2021/06/08 05:14:45;;;;;;;80.68;40.90;;;;;;;;;;5053438;28;20136;-66
2021/06/08 05:17:31;;;;;;;79.50;39.42;;;;;;;;;;5043218;28;20521;-66
2021/06/08 05:20:17;;;;;;;77.65;40.63;;;;;;;;;;5052156;28;20049;-66
2021/06/08 05:23:03;;;;;;;86.18;40.38;;;;;;;;;;5053279;28;20146;-66
2021/06/08 05:26:05;;;;;;;76.17;38.90;;;;;;;;;;5052327;28;20052;-65
2021/06/08 05:29:07;;;;;;;70.07;40.30;;;;;;;;;;5033161;28;20438;-66
2021/06/08 05:31:56;;;;;;;64.90;41.85;;;;;;;;;;5032984;28;20053;-66
2021/06/08 05:34:42;;;;;;;65.60;40.40;;;;;;;;;;5043872;28;20110;-65
2021/06/08 05:37:27;;;;;;;49.75;34.10;;;;;;;;;;5034940;28;20041;-65
2021/06/08 05:40:13;;;;;;;59.95;38.40;;;;;;;;;;5052380;28;20415;-66
2021/06/08 05:42:58;;;;;;;53.30;36.45;;;;;;;;;;5049126;28;20053;-66
2021/06/08 05:45:45;;;;;;;55.20;35.17;;;;;;;;;;5052637;28;20045;-66
2021/06/08 05:48:30;;;;;;;57.38;35.55;;;;;;;;;;5051512;28;20124;-66
2021/06/08 05:51:19;;;;;;;46.33;31.50;;;;;;;;;;5052287;28;20140;-65
2021/06/08 05:54:05;;;;;;;44.60;29.60;;;;;;;;;;5037771;28;20080;-65
2021/06/08 05:56:51;;;;;;;39.55;30.80;;;;;;;;;;5037823;28;20411;-66
2021/06/08 05:59:38;;;;;;;47.88;34.63;;;;;;;;;;5051163;28;20059;-66
2021/06/08 06:02:24;;;;;;;44.30;31.67;;;;;;;;;;5037904;28;20044;-65
2021/06/08 06:05:29;;;;;;;48.65;33.97;;;;;;;;;;5040395;28;20044;-65
2021/06/08 06:08:17;;;;;;;48.80;34.25;;;;;;;;;;5051251;28;20044;-65
2021/06/08 06:11:02;;;;;;;48.20;32.42;;;;;;;;;;5052142;28;20099;-66
2021/06/08 06:13:48;;;;;;;57.10;36.35;;;;;;;;;;5017355;28;20042;-65
2021/06/08 06:16:36;;;;;;;48.53;34.85;;;;;;;;;;5032393;28;20057;-65
2021/06/08 06:19:22;;;;;;;46.80;31.40;;;;;;;;;;5043007;28;20379;-65
2021/06/08 06:22:25;;;;;;;45.28;31.45;;;;;;;;;;5050941;28;20048;-65
2021/06/08 06:25:16;;;;;;;42.75;32.33;;;;;;;;;;5051307;28;20174;-63
2021/06/08 06:28:05;;;;;;;42.55;31.10;;;;;;;;;;5051860;28;20041;-63
2021/06/08 06:30:52;;;;;;;41.13;31.73;;;;;;;;;;5016785;28;20053;-63
2021/06/08 06:33:41;;;;;;;39.83;30.90;;;;;;;;;;5033318;28;20054;-65
2021/06/08 06:36:29;;;;;;;37.50;29.65;;;;;;;;;;5052205;28;20119;-64
2021/06/08 06:39:27;;;;;;;37.60;30.63;;;;;;;;;;5051975;28;20057;-65
2021/06/08 06:42:13;;;;;;;32.85;29.25;;;;;;;;;;5052068;28;20049;-65
2021/06/08 06:45:03;;;;;;;30.58;26.13;;;;;;;;;;5045411;28;20140;-64
2021/06/08 06:47:48;;;;;;;29.17;26.02;;;;;;;;;;5050964;28;20049;-64
2021/06/08 06:50:39;;;;;;;28.45;24.48;;;;;;;;;;5051642;28;20049;-64
2021/06/08 06:53:24;;;;;;;27.30;24.35;;;;;;;;;;5051854;28;20053;-64
2021/06/08 06:56:10;;;;;;;28.60;24.63;;;;;;;;;;5047880;28;20055;-64
2021/06/08 06:58:57;;;;;;;29.35;26.02;;;;;;;;;;5050030;28;20134;-65
2021/06/08 07:01:42;;;;;;;28.90;25.90;;;;;;;;;;5047713;28;20045;-64
2021/06/08 07:04:31;;;;;;;26.10;23.08;;;;;;;;;;5051730;28;20491;-65
2021/06/08 07:07:22;;;;;;;25.65;22.92;;;;;;;;;;5048461;28;20106;-65
2021/06/08 07:10:11;;;;;;;26.50;23.70;;;;;;;;;;5049923;28;20048;-65
2021/06/08 07:12:56;;;;;;;27.23;23.77;;;;;;;;;;5050582;28;20059;-65
2021/06/08 07:15:44;;;;;;;28.58;24.85;;;;;;;;;;5050646;28;20045;-65
2021/06/08 07:18:34;;;;;;;30.98;25.88;;;;;;;;;;5049780;28;20053;-65
2021/06/08 07:21:19;;;;;;;37.40;27.73;;;;;;;;;;5051384;28;20151;-65
2021/06/08 07:24:06;;;;;;;29.50;26.45;;;;;;;;;;5051774;28;20072;-65
2021/06/08 07:26:53;;;;;;;26.75;23.88;;;;;;;;;;5050500;28;20052;-65
2021/06/08 07:29:46;;;;;;;29.50;25.40;;;;;;;;;;5054044;28;20057;-65
2021/06/08 07:32:38;;;;;;;26.33;23.45;;;;;;;;;;5053973;28;20564;-65
2021/06/08 07:35:38;;;;;;;29.83;25.67;;;;;;;;;;5054250;28;20052;-65
2021/06/08 07:38:24;;;;;;;28.15;24.23;;;;;;;;;;5055279;28;20143;-65
2021/06/08 07:41:27;;;;;;;26.48;23.60;;;;;;;;;;5053059;28;20136;-65
2021/06/08 07:44:15;;;;;;;29.90;26.67;;;;;;;;;;5055298;28;20041;-65
2021/06/08 07:47:02;;;;;;;28.60;25.52;;;;;;;;;;5055112;28;20071;-65
2021/06/08 07:49:49;;;;;;;28.98;24.65;;;;;;;;;;5053495;28;20051;-65
2021/06/08 07:52:51;;;;;;;29.05;23.17;;;;;;;;;;5055111;28;20045;-65
2021/06/08 07:55:37;;;;;;;26.73;23.83;;;;;;;;;;5054900;28;20045;-65
2021/06/08 07:58:25;;;;;;;26.00;21.17;;;;;;;;;;5053923;28;20047;-64
2021/06/08 08:01:11;;;;;;;25.48;22.38;;;;;;;;;;5047284;28;20048;-64
2021/06/08 08:03:58;;;;;;;24.00;21.40;;;;;;;;;;5053148;28;20118;-65
2021/06/08 08:06:43;;;;;;;28.42;23.65;;;;;;;;;;5053614;28;20044;-64
2021/06/08 08:09:30;;;;;;;23.10;20.70;;;;;;;;;;5050129;28;20052;-65
2021/06/08 08:12:16;;;;;;;26.95;21.77;;;;;;;;;;5052583;28;20044;-65
2021/06/08 08:15:11;;;;;;;22.65;18.17;;;;;;;;;;5053804;28;20076;-65
2021/06/08 08:17:57;;;;;;;23.27;20.55;;;;;;;;;;5053117;28;20487;-65
2021/06/08 08:20:56;;;;;;;20.55;17.40;;;;;;;;;;5046625;28;20056;-64
2021/06/08 08:23:42;;;;;;;22.00;17.55;;;;;;;;;;5034357;28;20068;-64
2021/06/08 08:26:47;;;;;;;21.70;17.65;;;;;;;;;;5019781;28;20053;-64
2021/06/08 08:29:35;;;;;;;19.33;16.70;;;;;;;;;;5044573;28;20495;-64
2021/06/08 08:32:22;;;;;;;16.17;14.45;;;;;;;;;;5054357;28;20071;-65
2021/06/08 08:35:11;;;;;;;17.95;16.08;;;;;;;;;;5054115;28;20127;-65
2021/06/08 08:37:57;;;;;;;16.48;14.52;;;;;;;;;;5053739;28;20268;-65
2021/06/08 08:40:45;;;;;;;18.25;12.95;;;;;;;;;;5052566;28;20495;-65
2021/06/08 08:43:51;;;;;;;12.63;10.30;;;;;;;;;;5027889;28;20072;-65
2021/06/08 08:46:56;;;;;;;13.45;11.80;;;;;;;;;;5037703;28;20041;-66
2021/06/08 08:49:49;;;;;;;15.10;11.90;;;;;;;;;;5052936;28;20487;-66
2021/06/08 08:52:36;;;;;;;13.52;10.57;;;;;;;;;;5048330;28;20041;-66
2021/06/08 08:55:24;;;;;;;12.38;10.18;;;;;;;;;;5037891;28;20048;-66
2021/06/08 08:58:29;;;;;;;10.73;8.68;;;;;;;;;;5052487;28;20045;-66
2021/06/08 09:01:30;;;;;;;10.38;8.80;;;;;;;;;;5053532;28;20064;-66
2021/06/08 09:04:17;;;;;;;10.35;9.35;;;;;;;;;;5052633;28;20053;-66
2021/06/08 09:07:02;;;;;;;10.25;9.20;;;;;;;;;;5053439;28;20049;-66
2021/06/08 09:09:52;;;;;;;10.40;8.32;;;;;;;;;;5052025;28;20044;-66
2021/06/08 09:12:38;;;;;;;8.40;7.25;;;;;;;;;;5053367;28;20507;-66
2021/06/08 09:15:26;;;;;;;7.93;5.55;;;;;;;;;;5053176;28;20094;-66
2021/06/08 09:18:13;;;;;;;6.47;5.00;;;;;;;;;;5051949;28;20040;-66
2021/06/08 09:21:11;;;;;;;5.82;4.95;;;;;;;;;;5053011;28;20049;-66
2021/06/08 09:23:57;;;;;;;6.90;4.05;;;;;;;;;;5053172;28;20123;-66
2021/06/08 09:26:52;;;;;;;5.28;4.18;;;;;;;;;;5038029;28;20120;-66
2021/06/08 09:29:38;;;;;;;4.25;2.00;;;;;;;;;;5049638;28;20561;-66
2021/06/08 09:32:24;;;;;;;5.43;4.53;;;;;;;;;;5040160;28;20044;-66
2021/06/08 09:35:11;;;;;;;8.18;5.60;;;;;;;;;;5053099;28;20060;-66
2021/06/08 09:37:57;;;;;;;5.60;4.28;;;;;;;;;;5053165;28;20057;-66
2021/06/08 09:40:42;;;;;;;6.55;5.65;;;;;;;;;;5047818;28;20106;-66
2021/06/08 09:43:27;;;;;;;6.55;5.32;;;;;;;;;;5053032;28;20044;-66
2021/06/08 09:46:13;;;;;;;5.70;5.10;;;;;;;;;;5042495;28;20323;-66
2021/06/08 09:49:05;;;;;;;5.93;4.90;;;;;;;;;;5047529;28;20042;-66
2021/06/08 09:51:50;;;;;;;8.57;5.30;;;;;;;;;;5050007;28;20037;-66
2021/06/08 09:54:42;;;;;;;5.72;5.05;;;;;;;;;;5052381;28;20048;-65
2021/06/08 09:57:32;;;;;;;7.57;5.72;;;;;;;;;;5051445;28;20045;-65
2021/06/08 10:00:17;;;;;;;6.88;4.50;;;;;;;;;;5052297;28;20041;-65
2021/06/08 10:03:03;;;;;;;4.45;3.72;;;;;;;;;;5051932;28;20071;-65
2021/06/08 10:05:48;;;;;;;5.15;3.13;;;;;;;;;;5052588;28;20073;-65
2021/06/08 10:08:34;;;;;;;4.15;3.17;;;;;;;;;;5066883;22;20135;-63
2021/06/08 10:11:21;;;;;;;5.43;3.75;;;;;;;;;;5051162;28;20052;-63
2021/06/08 10:14:19;;;;;;;4.75;3.83;;;;;;;;;;5052533;28;20052;-62
2021/06/08 10:17:09;;;;;;;5.38;3.88;;;;;;;;;;5052301;28;20053;-63
2021/06/08 10:19:54;;;;;;;5.72;4.00;;;;;;;;;;5052162;28;20041;-63
2021/06/08 10:22:40;;;;;;;4.15;3.47;;;;;;;;;;5050442;28;20080;-63
2021/06/08 10:25:46;;;;;;;5.60;3.15;;;;;;;;;;5040170;28;20052;-63
2021/06/08 10:28:32;;;;;;;3.75;3.17;;;;;;;;;;5052010;28;20465;-63
2021/06/08 10:31:17;;;;;;;3.28;2.97;;;;;;;;;;5052009;28;20055;-63
2021/06/08 10:34:05;;;;;;;4.07;2.78;;;;;;;;;;5051106;28;20051;-63
2021/06/08 10:36:51;;;;;;;6.28;2.72;;;;;;;;;;5052278;28;20049;-63
2021/06/08 10:39:36;;;;;;;4.70;3.60;;;;;;;;;;5051787;28;20040;-63
2021/06/08 10:42:22;;;;;;;5.55;3.67;;;;;;;;;;5050653;28;20140;-63
2021/06/08 10:45:09;;;;;;;5.68;3.95;;;;;;;;;;5051851;28;20053;-63
2021/06/08 10:48:04;;;;;;;3.63;3.13;;;;;;;;;;5052110;28;20060;-63
2021/06/08 10:50:50;;;;;;;4.47;3.95;;;;;;;;;;5051656;28;20138;-63
2021/06/08 10:53:37;;;;;;;7.50;4.78;;;;;;;;;;5050783;28;20515;-63
2021/06/08 10:56:29;;;;;;;5.40;4.10;;;;;;;;;;5051402;28;20041;-63
2021/06/08 10:59:14;;;;;;;6.97;4.82;;;;;;;;;;5050808;28;20045;-63
2021/06/08 11:01:59;;;;;;;6.72;5.53;;;;;;;;;;5065219;28;20064;-63
2021/06/08 11:04:55;;;;;;;6.05;4.80;;;;;;;;;;5055177;28;20414;-63
2021/06/08 11:07:40;;;;;;;;;;;;;;;;;;5055349;28;20049;-63
2021/06/08 11:10:29;;;;;;;6.90;6.05;;;;;;;;;;5055653;28;19922;-63
2021/06/08 11:13:20;;;;;;;8.77;6.43;;;;;;;;;;5055684;28;20045;-63
2021/06/08 11:16:26;;;;;;;5.85;5.10;;;;;;;;;;5055531;28;20126;-63
2021/06/08 11:19:13;;;;;;;6.70;4.97;;;;;;;;;;5054459;28;20055;-63
2021/06/08 11:21:58;;;;;;;6.65;5.57;;;;;;;;;;5055521;28;20049;-63
2021/06/08 11:24:45;;;;;;;5.82;4.78;;;;;;;;;;5055698;28;20064;-63
2021/06/08 11:28:04;;;;;;;5.85;5.25;;;;;;;;;;5055295;28;20060;-63
2021/06/08 11:30:55;;;;;;;6.97;5.43;;;;;;;;;;5038136;28;20049;-63
2021/06/08 11:33:41;;;;;;;9.10;5.38;;;;;;;;;;5055390;28;20052;-63
2021/06/08 11:36:28;;;;;;;6.18;4.45;;;;;;;;;;5055393;28;20074;-63
2021/06/08 11:39:19;;;;;;;6.78;5.75;;;;;;;;;;5053959;28;20060;-63
2021/06/08 11:42:07;;;;;;;5.63;5.13;;;;;;;;;;5055289;28;20514;-63
2021/06/08 11:44:52;;;;;;;6.45;4.90;;;;;;;;;;5055206;28;20414;-63
2021/06/08 11:47:38;;;;;;;5.78;4.72;;;;;;;;;;5053933;28;20499;-63
2021/06/08 11:50:45;;;;;;;9.50;4.90;;;;;;;;;;5052518;28;20514;-63
2021/06/08 11:53:32;;;;;;;10.23;5.55;;;;;;;;;;5053522;28;20044;-63
2021/06/08 11:56:18;;;;;;;7.70;5.13;;;;;;;;;;5055143;28;20045;-63
2021/06/08 11:59:06;;;;;;;6.05;4.57;;;;;;;;;;5054885;28;20049;-63
2021/06/08 12:01:53;;;;;;;7.18;4.68;;;;;;;;;;5054930;28;20179;-64
2021/06/08 12:04:57;;;;;;;7.28;4.25;;;;;;;;;;5055074;28;20499;-63
2021/06/08 12:07:43;;;;;;;9.50;4.38;;;;;;;;;;5054810;28;20402;-63
2021/06/08 12:10:33;;;;;;;7.03;4.78;;;;;;;;;;5052085;28;20063;-63
2021/06/08 12:13:19;;;;;;;7.50;5.35;;;;;;;;;;5054266;28;20495;-63
2021/06/08 12:16:11;;;;;;;7.25;4.20;;;;;;;;;;5054589;28;20051;-63
2021/06/08 12:18:57;;;;;;;6.75;4.65;;;;;;;;;;5054768;28;20053;-64
2021/06/08 12:21:45;;;;;;;6.05;4.40;;;;;;;;;;5053437;28;20059;-63
2021/06/08 12:24:30;;;;;;;6.97;3.80;;;;;;;;;;5053376;28;20491;-63
2021/06/08 12:27:15;;;;;;;5.20;4.20;;;;;;;;;;5054429;28;20414;-63
2021/06/08 12:30:01;;;;;;;5.95;3.95;;;;;;;;;;5054144;28;20044;-63
2021/06/08 12:32:46;;;;;;;7.13;4.75;;;;;;;;;;5053877;28;20052;-64
2021/06/08 12:35:32;;;;;;;4.68;3.88;;;;;;;;;;5067122;28;20047;-63
2021/06/08 12:38:20;;;;;;;5.45;4.00;;;;;;;;;;5054518;28;20045;-63
2021/06/08 12:41:12;;;;;;;5.80;4.07;;;;;;;;;;5053238;28;20079;-64
2021/06/08 12:43:57;;;;;;;;;;;;;;;;;;5054657;28;20107;-63
2021/06/08 12:46:42;;;;;;;4.35;3.30;;;;;;;;;;5052993;28;20294;-63
2021/06/08 12:49:27;;;;;;;5.78;3.20;;;;;;;;;;5053778;28;20052;-64
2021/06/08 12:52:22;;;;;;;5.38;3.13;;;;;;;;;;5066345;28;20384;-63
2021/06/08 12:55:11;;;;;;;5.93;3.15;;;;;;;;;;5054050;28;20045;-64
2021/06/08 12:57:59;;;;;;;3.97;2.97;;;;;;;;;;5053644;28;20645;-63
2021/06/08 13:00:44;;;;;;;5.18;2.92;;;;;;;;;;5053684;28;20115;-64
2021/06/08 13:03:30;;;;;;;4.55;3.38;;;;;;;;;;5052562;28;20496;-64
2021/06/08 13:06:15;;;;;;;4.00;3.00;;;;;;;;;;5053491;28;20069;-63
2021/06/08 13:09:00;;;;;;;4.95;3.47;;;;;;;;;;5052559;28;20056;-64
2021/06/08 13:11:46;;;;;;;3.83;2.90;;;;;;;;;;5051758;28;20049;-64
2021/06/08 13:14:31;;;;;;;3.47;2.60;;;;;;;;;;5033593;28;20046;-63
2021/06/08 13:17:20;;;;;;;4.57;2.88;;;;;;;;;;5033594;28;20069;-63
2021/06/08 13:20:26;;;;;;;3.75;2.50;;;;;;;;;;5033260;28;20045;-63
2021/06/08 13:23:23;;;;;;;3.80;2.45;;;;;;;;;;5039245;28;20060;-63
2021/06/08 13:26:10;;;;;;;2.85;2.22;;;;;;;;;;5052314;28;20527;-63
2021/06/08 13:28:57;;;;;;;2.75;1.83;;;;;;;;;;5053005;28;20420;-63
2021/06/08 13:31:42;;;;;;;2.10;1.67;;;;;;;;;;5052719;28;20076;-63
2021/06/08 13:34:28;;;;;;;3.28;2.05;;;;;;;;;;5052263;28;20087;-64
2021/06/08 13:37:13;;;;;;;2.50;1.88;;;;;;;;;;5052994;28;20049;-63
2021/06/08 13:39:59;;;;;;;4.18;2.33;;;;;;;;;;5065596;28;20132;-63
2021/06/08 13:42:55;;;;;;;2.63;2.00;;;;;;;;;;5052963;28;20049;-64
2021/06/08 13:45:46;;;;;;;4.07;2.30;;;;;;;;;;5052730;28;20388;-64
2021/06/08 13:48:54;;;;;;;3.13;1.98;;;;;;;;;;5050961;28;20064;-64
2021/06/08 13:51:38;;;;;;;3.47;2.35;;;;;;;;;;5053012;28;20055;-64
2021/06/08 13:54:24;;;;;;;1.95;1.85;;;;;;;;;;5051827;28;20047;-64
2021/06/08 13:57:27;;;;;;;4.93;2.40;;;;;;;;;;5052755;28;20045;-64
2021/06/08 14:00:19;;;;;;;2.63;1.80;;;;;;;;;;5052671;28;20051;-64
2021/06/08 14:03:04;;;;;;;3.00;2.00;;;;;;;;;;5052398;28;20514;-64
2021/06/08 14:05:50;;;;;;;4.53;2.33;;;;;;;;;;5033048;28;20419;-64
2021/06/08 14:08:35;;;;;;;4.85;2.08;;;;;;;;;;5032386;28;20253;-64
2021/06/08 14:11:32;;;;;;;3.97;1.77;;;;;;;;;;5032230;28;20041;-64
2021/06/08 14:14:19;;;;;;;5.35;2.20;;;;;;;;;;5034839;28;20148;-64
2021/06/08 14:17:09;;;;;;;2.42;1.73;;;;;;;;;;5052480;28;20041;-63
2021/06/08 14:19:55;;;;;;;2.80;2.08;;;;;;;;;;5052274;28;20183;-64
2021/06/08 14:22:40;;;;;;;1.80;1.70;;;;;;;;;;5052318;28;20446;-64
2021/06/08 14:25:26;;;;;;;2.65;1.85;;;;;;;;;;5050240;28;20081;-64
2021/06/08 14:28:11;;;;;;;2.47;2.20;;;;;;;;;;5052276;28;20519;-64
2021/06/08 14:30:57;;;;;;;2.15;1.83;;;;;;;;;;5052082;28;20515;-64
2021/06/08 14:33:43;;;;;;;2.67;1.65;;;;;;;;;;5052097;28;20447;-64
2021/06/08 14:36:29;;;;;;;1.88;1.70;;;;;;;;;;5051126;28;20056;-64
2021/06/08 14:39:14;;;;;;;2.60;2.10;;;;;;;;;;5052056;28;20076;-64
2021/06/08 14:41:59;;;;;;;4.07;1.75;;;;;;;;;;5052940;28;20423;-64
2021/06/08 14:44:45;;;;;;;2.38;1.77;;;;;;;;;;5052856;28;20060;-63
2021/06/08 14:47:30;;;;;;;2.85;1.88;;;;;;;;;;5032037;28;20131;-63
2021/06/08 14:50:15;;;;;;;4.03;2.92;;;;;;;;;;5031848;28;20056;-64
2021/06/08 14:53:01;;;;;;;3.33;1.65;;;;;;;;;;5031964;28;20487;-63
2021/06/08 14:55:48;;;;;;;2.28;1.80;;;;;;;;;;5034039;28;20049;-63
2021/06/08 14:58:33;;;;;;;4.47;1.90;;;;;;;;;;5051679;28;20126;-64
2021/06/08 15:01:19;;;;;;;2.97;1.95;;;;;;;;;;5051616;28;20041;-63
2021/06/08 15:04:04;;;;;;;4.45;1.95;;;;;;;;;;5051803;28;20183;-64
2021/06/08 15:06:54;;;;;;;2.50;1.80;;;;;;;;;;5049446;28;20543;-64
2021/06/08 15:09:39;;;;;;;5.40;1.75;;;;;;;;;;5051388;28;20056;-64
2021/06/08 15:12:25;;;;;;;1.88;1.77;;;;;;;;;;5051617;28;20052;-64
2021/06/08 15:15:10;;;;;;;3.00;1.83;;;;;;;;;;5052286;28;20052;-63
2021/06/08 15:17:56;;;;;;;2.45;1.48;;;;;;;;;;5050486;28;20106;-64
2021/06/08 15:20:41;;;;;;;1.88;1.63;;;;;;;;;;5031891;28;20412;-64
2021/06/08 15:23:27;;;;;;;3.03;1.52;;;;;;;;;;5031758;28;20054;-63
2021/06/08 15:26:12;;;;;;;2.15;1.20;;;;;;;;;;5031555;28;20057;-63
2021/06/08 15:29:03;;;;;;;2.50;2.10;;;;;;;;;;5031692;28;20539;-63
2021/06/08 15:31:48;;;;;;;2.42;1.30;;;;;;;;;;5050773;28;20049;-64
2021/06/08 15:34:34;;;;;;;2.33;1.63;;;;;;;;;;5051477;28;20102;-63
2021/06/08 15:37:19;;;;;;;2.13;1.25;;;;;;;;;;5050677;28;20048;-64
2021/06/08 15:40:06;;;;;;;1.35;1.13;;;;;;;;;;5051080;28;20051;-68
2021/06/08 15:42:52;;;;;;;1.88;1.33;;;;;;;;;;5051513;28;20528;-68
2021/06/08 15:45:37;;;;;;;2.75;1.48;;;;;;;;;;5051471;28;20056;-67
2021/06/08 15:48:23;;;;;;;1.48;1.25;;;;;;;;;;5050740;28;20040;-64
2021/06/08 15:51:08;;;;;;;3.38;1.40;;;;;;;;;;5053835;28;20098;-64
2021/06/08 15:53:53;;;;;;;1.95;1.40;;;;;;;;;;5053513;28;20049;-63
2021/06/08 15:56:39;;;;;;;3.00;1.50;;;;;;;;;;5054633;28;20048;-64
2021/06/08 15:59:24;;;;;;;1.27;1.02;;;;;;;;;;5053663;28;20036;-63
2021/06/08 16:02:10;;;;;;;1.98;1.38;;;;;;;;;;5043849;28;20043;-64
2021/06/08 16:04:55;;;;;;;2.75;1.67;;;;;;;;;;5051351;28;20069;-63
2021/06/08 16:07:40;;;;;;;2.33;1.50;;;;;;;;;;5046015;28;20055;-65
2021/06/08 16:10:25;;;;;;;1.60;1.10;;;;;;;;;;5049428;28;20040;-64
2021/06/08 16:13:11;;;;;;;2.00;1.55;;;;;;;;;;5040783;28;20056;-62
2021/06/08 16:15:56;;;;;;;3.20;1.60;;;;;;;;;;5052912;28;20471;-64
2021/06/08 16:18:42;;;;;;;3.88;1.50;;;;;;;;;;5052677;28;20049;-64
2021/06/08 16:21:27;;;;;;;2.92;1.40;;;;;;;;;;5041837;28;20052;-64
2021/06/08 16:24:13;;;;;;;1.65;1.27;;;;;;;;;;5043733;28;20078;-63
2021/06/08 16:26:58;;;;;;;2.40;1.40;;;;;;;;;;5050918;28;20051;-63
2021/06/08 16:29:43;;;;;;;2.28;1.80;;;;;;;;;;5040614;28;20415;-64